sensor_id;sensor_type;location;lat;lon;timestamp;P1;durP1;ratioP1;P2;durP2;ratioP2
49221;SDS011;35047;37.588;-122.048;2022-07-24T00:00:07;2.03;;;1.10;;
49221;SDS011;35047;37.588;-122.048;2022-07-24T00:02:35;3.03;;;0.80;;
49221;SDS011;35047;37.588;-122.048;2022-07-24T00:05:02;1.98;;;1.00;;
49221;SDS011;35047;37.588;-122.048;2022-07-24T00:07:29;4.65;;;1.30;;
49221;SDS011;35047;37.588;-122.048;2022-07-24T00:09:56;6.13;;;1.00;;
49221;SDS011;35047;37.588;-122.048;2022-07-24T00:14:49;4.28;;;1.00;;
49221;SDS011;35047;37.588;-122.048;2022-07-24T00:17:16;2.33;;;0.90;;
49221;SDS011;35047;37.588;-122.048;2022-07-24T00:19:44;2.95;;;1.25;;
49221;SDS011;35047;37.588;-122.048;2022-07-24T00:22:12;5.13;;;1.67;;
49221;SDS011;35047;37.588;-122.048;2022-07-24T00:24:39;2.45;;;1.17;;
49221;SDS011;35047;37.588;-122.048;2022-07-24T00:27:05;3.63;;;1.30;;
49221;SDS011;35047;37.588;-122.048;2022-07-24T00:31:59;4.43;;;1.50;;
49221;SDS011;35047;37.588;-122.048;2022-07-24T00:36:52;4.03;;;1.30;;
49221;SDS011;35047;37.588;-122.048;2022-07-24T00:39:19;7.38;;;1.48;;
49221;SDS011;35047;37.588;-122.048;2022-07-24T00:41:45;1.85;;;0.90;;
49221;SDS011;35047;37.588;-122.048;2022-07-24T00:44:13;3.10;;;1.02;;
49221;SDS011;35047;37.588;-122.048;2022-07-24T00:46:42;4.22;;;1.17;;
49221;SDS011;35047;37.588;-122.048;2022-07-24T00:49:11;2.38;;;0.93;;
49221;SDS011;35047;37.588;-122.048;2022-07-24T00:51:43;3.42;;;1.35;;
49221;SDS011;35047;37.588;-122.048;2022-07-24T00:54:11;5.00;;;1.73;;
49221;SDS011;35047;37.588;-122.048;2022-07-24T00:56:43;5.30;;;1.45;;
49221;SDS011;35047;37.588;-122.048;2022-07-24T00:59:12;5.15;;;1.40;;
49221;SDS011;35047;37.588;-122.048;2022-07-24T01:01:39;5.05;;;1.80;;
49221;SDS011;35047;37.588;-122.048;2022-07-24T01:04:05;3.25;;;1.27;;
49221;SDS011;35047;37.588;-122.048;2022-07-24T01:06:33;3.92;;;1.50;;
49221;SDS011;35047;37.588;-122.048;2022-07-24T01:09:00;6.45;;;1.77;;
49221;SDS011;35047;37.588;-122.048;2022-07-24T01:11:27;6.80;;;1.75;;
49221;SDS011;35047;37.588;-122.048;2022-07-24T01:13:56;6.80;;;1.70;;
49221;SDS011;35047;37.588;-122.048;2022-07-24T01:16:24;2.80;;;1.50;;
49221;SDS011;35047;37.588;-122.048;2022-07-24T01:18:50;4.13;;;1.60;;
49221;SDS011;35047;37.588;-122.048;2022-07-24T01:21:17;6.68;;;1.48;;
49221;SDS011;35047;37.588;-122.048;2022-07-24T01:23:44;4.80;;;1.83;;
49221;SDS011;35047;37.588;-122.048;2022-07-24T01:26:11;5.70;;;2.22;;
49221;SDS011;35047;37.588;-122.048;2022-07-24T01:28:37;6.93;;;2.30;;
49221;SDS011;35047;37.588;-122.048;2022-07-24T01:31:04;7.00;;;1.83;;
49221;SDS011;35047;37.588;-122.048;2022-07-24T01:33:31;7.78;;;2.42;;
49221;SDS011;35047;37.588;-122.048;2022-07-24T01:35:57;5.30;;;2.00;;
49221;SDS011;35047;37.588;-122.048;2022-07-24T01:38:24;11.30;;;2.28;;
49221;SDS011;35047;37.588;-122.048;2022-07-24T01:40:50;4.75;;;2.20;;
49221;SDS011;35047;37.588;-122.048;2022-07-24T01:43:17;7.93;;;2.75;;
49221;SDS011;35047;37.588;-122.048;2022-07-24T01:45:44;7.28;;;2.50;;
49221;SDS011;35047;37.588;-122.048;2022-07-24T01:48:11;5.50;;;2.05;;
49221;SDS011;35047;37.588;-122.048;2022-07-24T01:50:38;8.15;;;2.30;;
49221;SDS011;35047;37.588;-122.048;2022-07-24T01:53:05;5.18;;;1.80;;
49221;SDS011;35047;37.588;-122.048;2022-07-24T01:57:58;6.35;;;1.83;;
49221;SDS011;35047;37.588;-122.048;2022-07-24T02:00:26;7.03;;;2.47;;
49221;SDS011;35047;37.588;-122.048;2022-07-24T02:02:52;5.88;;;1.88;;
49221;SDS011;35047;37.588;-122.048;2022-07-24T02:05:19;6.13;;;2.03;;
49221;SDS011;35047;37.588;-122.048;2022-07-24T02:07:45;5.25;;;1.83;;
49221;SDS011;35047;37.588;-122.048;2022-07-24T02:10:23;6.38;;;1.92;;
49221;SDS011;35047;37.588;-122.048;2022-07-24T02:15:16;4.85;;;1.85;;
49221;SDS011;35047;37.588;-122.048;2022-07-24T02:17:46;4.47;;;1.83;;
49221;SDS011;35047;37.588;-122.048;2022-07-24T02:20:17;5.25;;;2.03;;
49221;SDS011;35047;37.588;-122.048;2022-07-24T02:22:45;5.32;;;1.77;;
49221;SDS011;35047;37.588;-122.048;2022-07-24T02:25:13;3.35;;;1.58;;
49221;SDS011;35047;37.588;-122.048;2022-07-24T02:27:40;4.28;;;1.48;;
49221;SDS011;35047;37.588;-122.048;2022-07-24T02:30:08;5.40;;;1.80;;
49221;SDS011;35047;37.588;-122.048;2022-07-24T02:32:37;5.32;;;1.85;;
49221;SDS011;35047;37.588;-122.048;2022-07-24T02:35:04;4.15;;;1.50;;
49221;SDS011;35047;37.588;-122.048;2022-07-24T02:37:31;5.25;;;1.88;;
49221;SDS011;35047;37.588;-122.048;2022-07-24T02:39:58;8.60;;;1.95;;
49221;SDS011;35047;37.588;-122.048;2022-07-24T02:42:25;5.13;;;1.52;;
49221;SDS011;35047;37.588;-122.048;2022-07-24T02:44:52;7.95;;;2.35;;
49221;SDS011;35047;37.588;-122.048;2022-07-24T02:47:18;9.80;;;1.70;;
49221;SDS011;35047;37.588;-122.048;2022-07-24T02:49:45;5.80;;;1.70;;
49221;SDS011;35047;37.588;-122.048;2022-07-24T02:52:12;9.95;;;2.00;;
49221;SDS011;35047;37.588;-122.048;2022-07-24T02:54:39;4.28;;;1.70;;
49221;SDS011;35047;37.588;-122.048;2022-07-24T02:57:07;5.63;;;1.60;;
49221;SDS011;35047;37.588;-122.048;2022-07-24T02:59:33;5.53;;;1.90;;
49221;SDS011;35047;37.588;-122.048;2022-07-24T03:02:01;4.80;;;2.22;;
49221;SDS011;35047;37.588;-122.048;2022-07-24T03:04:27;5.80;;;1.60;;
49221;SDS011;35047;37.588;-122.048;2022-07-24T03:06:55;4.50;;;1.85;;
49221;SDS011;35047;37.588;-122.048;2022-07-24T03:09:22;5.95;;;1.50;;
49221;SDS011;35047;37.588;-122.048;2022-07-24T03:14:15;5.07;;;1.80;;
49221;SDS011;35047;37.588;-122.048;2022-07-24T03:16:42;3.17;;;1.30;;
49221;SDS011;35047;37.588;-122.048;2022-07-24T03:19:08;6.33;;;2.30;;
49221;SDS011;35047;37.588;-122.048;2022-07-24T03:21:36;6.60;;;2.15;;
49221;SDS011;35047;37.588;-122.048;2022-07-24T03:24:02;5.03;;;2.07;;
49221;SDS011;35047;37.588;-122.048;2022-07-24T03:26:30;4.38;;;1.65;;
49221;SDS011;35047;37.588;-122.048;2022-07-24T03:28:56;4.50;;;1.70;;
49221;SDS011;35047;37.588;-122.048;2022-07-24T03:31:24;4.38;;;1.60;;
49221;SDS011;35047;37.588;-122.048;2022-07-24T03:33:50;4.70;;;1.40;;
49221;SDS011;35047;37.588;-122.048;2022-07-24T03:36:17;5.15;;;1.42;;
49221;SDS011;35047;37.588;-122.048;2022-07-24T03:38:44;4.07;;;1.35;;
49221;SDS011;35047;37.588;-122.048;2022-07-24T03:41:12;5.25;;;1.33;;
49221;SDS011;35047;37.588;-122.048;2022-07-24T03:43:38;4.40;;;1.63;;
49221;SDS011;35047;37.588;-122.048;2022-07-24T03:46:05;4.68;;;1.52;;
49221;SDS011;35047;37.588;-122.048;2022-07-24T03:48:32;6.23;;;1.57;;
49221;SDS011;35047;37.588;-122.048;2022-07-24T03:50:58;6.20;;;2.13;;
49221;SDS011;35047;37.588;-122.048;2022-07-24T03:53:25;5.72;;;1.73;;
49221;SDS011;35047;37.588;-122.048;2022-07-24T03:55:53;6.82;;;1.80;;
49221;SDS011;35047;37.588;-122.048;2022-07-24T03:58:20;5.57;;;1.90;;
49221;SDS011;35047;37.588;-122.048;2022-07-24T04:00:46;5.73;;;1.67;;
49221;SDS011;35047;37.588;-122.048;2022-07-24T04:03:14;6.13;;;2.13;;
49221;SDS011;35047;37.588;-122.048;2022-07-24T04:05:41;4.80;;;1.80;;
49221;SDS011;35047;37.588;-122.048;2022-07-24T04:08:07;7.63;;;1.97;;
49221;SDS011;35047;37.588;-122.048;2022-07-24T04:10:35;4.82;;;1.60;;
49221;SDS011;35047;37.588;-122.048;2022-07-24T04:13:01;7.33;;;2.03;;
49221;SDS011;35047;37.588;-122.048;2022-07-24T04:15:28;6.78;;;2.13;;
49221;SDS011;35047;37.588;-122.048;2022-07-24T04:17:55;5.68;;;1.95;;
49221;SDS011;35047;37.588;-122.048;2022-07-24T04:20:22;6.20;;;2.20;;
49221;SDS011;35047;37.588;-122.048;2022-07-24T04:22:48;7.77;;;1.97;;
49221;SDS011;35047;37.588;-122.048;2022-07-24T04:25:15;5.88;;;1.80;;
49221;SDS011;35047;37.588;-122.048;2022-07-24T04:27:42;5.38;;;1.83;;
49221;SDS011;35047;37.588;-122.048;2022-07-24T04:30:09;6.22;;;1.92;;
49221;SDS011;35047;37.588;-122.048;2022-07-24T04:32:36;5.32;;;1.80;;
49221;SDS011;35047;37.588;-122.048;2022-07-24T04:35:05;3.88;;;1.60;;
49221;SDS011;35047;37.588;-122.048;2022-07-24T04:37:32;8.32;;;2.10;;
49221;SDS011;35047;37.588;-122.048;2022-07-24T04:40:00;5.30;;;1.50;;
49221;SDS011;35047;37.588;-122.048;2022-07-24T04:44:53;8.35;;;2.28;;
49221;SDS011;35047;37.588;-122.048;2022-07-24T04:47:19;2.83;;;1.50;;
49221;SDS011;35047;37.588;-122.048;2022-07-24T04:49:47;3.58;;;1.50;;
49221;SDS011;35047;37.588;-122.048;2022-07-24T04:52:13;5.07;;;1.92;;
49221;SDS011;35047;37.588;-122.048;2022-07-24T04:54:40;4.72;;;1.75;;
49221;SDS011;35047;37.588;-122.048;2022-07-24T04:57:06;6.67;;;1.83;;
49221;SDS011;35047;37.588;-122.048;2022-07-24T04:59:33;6.78;;;1.85;;
49221;SDS011;35047;37.588;-122.048;2022-07-24T05:02:00;4.97;;;1.70;;
49221;SDS011;35047;37.588;-122.048;2022-07-24T05:04:28;6.18;;;1.73;;
49221;SDS011;35047;37.588;-122.048;2022-07-24T05:06:54;5.15;;;1.70;;
49221;SDS011;35047;37.588;-122.048;2022-07-24T05:09:22;4.55;;;1.50;;
49221;SDS011;35047;37.588;-122.048;2022-07-24T05:11:48;6.90;;;1.75;;
49221;SDS011;35047;37.588;-122.048;2022-07-24T05:16:43;5.07;;;1.70;;
49221;SDS011;35047;37.588;-122.048;2022-07-24T05:19:09;7.78;;;1.80;;
49221;SDS011;35047;37.588;-122.048;2022-07-24T05:21:36;5.43;;;1.45;;
49221;SDS011;35047;37.588;-122.048;2022-07-24T05:24:03;4.72;;;1.65;;
49221;SDS011;35047;37.588;-122.048;2022-07-24T05:26:31;7.30;;;2.17;;
49221;SDS011;35047;37.588;-122.048;2022-07-24T05:31:26;9.03;;;1.80;;
49221;SDS011;35047;37.588;-122.048;2022-07-24T05:33:53;8.98;;;2.95;;
49221;SDS011;35047;37.588;-122.048;2022-07-24T05:36:20;5.05;;;1.80;;
49221;SDS011;35047;37.588;-122.048;2022-07-24T05:38:47;6.93;;;1.80;;
49221;SDS011;35047;37.588;-122.048;2022-07-24T05:41:14;4.90;;;1.95;;
49221;SDS011;35047;37.588;-122.048;2022-07-24T05:43:41;10.43;;;2.67;;
49221;SDS011;35047;37.588;-122.048;2022-07-24T05:46:08;6.68;;;1.92;;
49221;SDS011;35047;37.588;-122.048;2022-07-24T05:48:34;4.47;;;1.70;;
49221;SDS011;35047;37.588;-122.048;2022-07-24T05:51:01;5.82;;;1.45;;
49221;SDS011;35047;37.588;-122.048;2022-07-24T05:53:27;7.57;;;2.20;;
49221;SDS011;35047;37.588;-122.048;2022-07-24T05:55:55;5.15;;;1.60;;
49221;SDS011;35047;37.588;-122.048;2022-07-24T05:58:21;7.35;;;1.98;;
49221;SDS011;35047;37.588;-122.048;2022-07-24T06:00:48;6.30;;;2.15;;
49221;SDS011;35047;37.588;-122.048;2022-07-24T06:03:15;6.53;;;2.03;;
49221;SDS011;35047;37.588;-122.048;2022-07-24T06:05:42;7.55;;;1.98;;
49221;SDS011;35047;37.588;-122.048;2022-07-24T06:08:08;6.40;;;1.70;;
49221;SDS011;35047;37.588;-122.048;2022-07-24T06:10:36;7.68;;;1.92;;
49221;SDS011;35047;37.588;-122.048;2022-07-24T06:13:02;8.53;;;1.90;;
49221;SDS011;35047;37.588;-122.048;2022-07-24T06:15:29;7.07;;;1.90;;
49221;SDS011;35047;37.588;-122.048;2022-07-24T06:17:55;7.20;;;1.90;;
49221;SDS011;35047;37.588;-122.048;2022-07-24T06:20:23;6.23;;;2.07;;
49221;SDS011;35047;37.588;-122.048;2022-07-24T06:22:49;5.18;;;1.67;;
49221;SDS011;35047;37.588;-122.048;2022-07-24T06:25:17;6.05;;;1.60;;
49221;SDS011;35047;37.588;-122.048;2022-07-24T06:27:45;6.70;;;1.77;;
49221;SDS011;35047;37.588;-122.048;2022-07-24T06:30:18;9.02;;;2.08;;
49221;SDS011;35047;37.588;-122.048;2022-07-24T06:32:51;8.65;;;2.13;;
49221;SDS011;35047;37.588;-122.048;2022-07-24T06:35:19;6.22;;;1.60;;
49221;SDS011;35047;37.588;-122.048;2022-07-24T06:37:46;8.32;;;1.85;;
49221;SDS011;35047;37.588;-122.048;2022-07-24T06:40:14;7.30;;;2.03;;
49221;SDS011;35047;37.588;-122.048;2022-07-24T06:42:43;5.00;;;1.80;;
49221;SDS011;35047;37.588;-122.048;2022-07-24T06:45:10;4.53;;;1.30;;
49221;SDS011;35047;37.588;-122.048;2022-07-24T06:47:37;5.28;;;1.88;;
49221;SDS011;35047;37.588;-122.048;2022-07-24T06:50:04;4.63;;;1.58;;
49221;SDS011;35047;37.588;-122.048;2022-07-24T06:52:32;8.90;;;1.70;;
49221;SDS011;35047;37.588;-122.048;2022-07-24T06:54:59;6.63;;;1.55;;
49221;SDS011;35047;37.588;-122.048;2022-07-24T06:57:25;4.40;;;1.95;;
49221;SDS011;35047;37.588;-122.048;2022-07-24T06:59:54;7.20;;;1.70;;
49221;SDS011;35047;37.588;-122.048;2022-07-24T07:02:22;5.07;;;1.60;;
49221;SDS011;35047;37.588;-122.048;2022-07-24T07:04:49;6.57;;;1.98;;
49221;SDS011;35047;37.588;-122.048;2022-07-24T07:07:15;6.57;;;1.90;;
49221;SDS011;35047;37.588;-122.048;2022-07-24T07:09:42;4.93;;;1.40;;
49221;SDS011;35047;37.588;-122.048;2022-07-24T07:12:09;6.88;;;1.90;;
49221;SDS011;35047;37.588;-122.048;2022-07-24T07:14:37;9.05;;;2.35;;
49221;SDS011;35047;37.588;-122.048;2022-07-24T07:17:04;5.80;;;1.85;;
49221;SDS011;35047;37.588;-122.048;2022-07-24T07:19:31;5.30;;;2.28;;
49221;SDS011;35047;37.588;-122.048;2022-07-24T07:21:57;7.18;;;2.22;;
49221;SDS011;35047;37.588;-122.048;2022-07-24T07:24:24;7.80;;;1.75;;
49221;SDS011;35047;37.588;-122.048;2022-07-24T07:26:50;9.82;;;2.20;;
49221;SDS011;35047;37.588;-122.048;2022-07-24T07:29:17;7.93;;;2.13;;
49221;SDS011;35047;37.588;-122.048;2022-07-24T07:31:45;5.95;;;1.92;;
49221;SDS011;35047;37.588;-122.048;2022-07-24T07:34:11;9.63;;;2.37;;
49221;SDS011;35047;37.588;-122.048;2022-07-24T07:36:38;8.57;;;2.25;;
49221;SDS011;35047;37.588;-122.048;2022-07-24T07:39:04;6.38;;;1.92;;
49221;SDS011;35047;37.588;-122.048;2022-07-24T07:41:31;7.47;;;2.03;;
49221;SDS011;35047;37.588;-122.048;2022-07-24T07:43:58;8.63;;;2.37;;
49221;SDS011;35047;37.588;-122.048;2022-07-24T07:46:25;7.90;;;2.40;;
49221;SDS011;35047;37.588;-122.048;2022-07-24T07:48:52;7.13;;;2.42;;
49221;SDS011;35047;37.588;-122.048;2022-07-24T07:51:19;7.10;;;2.28;;
49221;SDS011;35047;37.588;-122.048;2022-07-24T07:53:46;6.53;;;2.10;;
49221;SDS011;35047;37.588;-122.048;2022-07-24T07:56:13;7.00;;;2.08;;
49221;SDS011;35047;37.588;-122.048;2022-07-24T07:58:40;6.03;;;2.10;;
49221;SDS011;35047;37.588;-122.048;2022-07-24T08:03:34;8.98;;;2.00;;
49221;SDS011;35047;37.588;-122.048;2022-07-24T08:08:29;6.03;;;2.17;;
49221;SDS011;35047;37.588;-122.048;2022-07-24T08:10:56;7.70;;;2.33;;
49221;SDS011;35047;37.588;-122.048;2022-07-24T08:13:23;8.87;;;2.30;;
49221;SDS011;35047;37.588;-122.048;2022-07-24T08:15:50;10.57;;;2.47;;
49221;SDS011;35047;37.588;-122.048;2022-07-24T08:18:18;7.72;;;2.47;;
49221;SDS011;35047;37.588;-122.048;2022-07-24T08:20:45;10.80;;;2.90;;
49221;SDS011;35047;37.588;-122.048;2022-07-24T08:23:11;9.65;;;2.40;;
49221;SDS011;35047;37.588;-122.048;2022-07-24T08:25:38;5.30;;;2.20;;
49221;SDS011;35047;37.588;-122.048;2022-07-24T08:28:05;9.82;;;2.55;;
49221;SDS011;35047;37.588;-122.048;2022-07-24T08:30:32;7.68;;;2.17;;
49221;SDS011;35047;37.588;-122.048;2022-07-24T08:32:59;6.75;;;2.28;;
49221;SDS011;35047;37.588;-122.048;2022-07-24T08:35:25;10.65;;;3.35;;
49221;SDS011;35047;37.588;-122.048;2022-07-24T08:37:52;9.02;;;2.60;;
49221;SDS011;35047;37.588;-122.048;2022-07-24T08:40:18;9.52;;;2.97;;
49221;SDS011;35047;37.588;-122.048;2022-07-24T08:42:45;11.83;;;3.07;;
49221;SDS011;35047;37.588;-122.048;2022-07-24T08:47:41;11.23;;;2.42;;
49221;SDS011;35047;37.588;-122.048;2022-07-24T08:50:08;9.50;;;2.78;;
49221;SDS011;35047;37.588;-122.048;2022-07-24T08:55:04;11.63;;;2.63;;
49221;SDS011;35047;37.588;-122.048;2022-07-24T08:57:31;10.77;;;2.53;;
49221;SDS011;35047;37.588;-122.048;2022-07-24T08:59:57;13.73;;;2.47;;
49221;SDS011;35047;37.588;-122.048;2022-07-24T09:02:26;11.95;;;3.15;;
49221;SDS011;35047;37.588;-122.048;2022-07-24T09:04:57;10.93;;;2.70;;
49221;SDS011;35047;37.588;-122.048;2022-07-24T09:07:27;10.85;;;2.17;;
49221;SDS011;35047;37.588;-122.048;2022-07-24T09:10:12;8.07;;;2.42;;
49221;SDS011;35047;37.588;-122.048;2022-07-24T09:12:45;9.43;;;2.45;;
49221;SDS011;35047;37.588;-122.048;2022-07-24T09:15:21;10.57;;;2.50;;
49221;SDS011;35047;37.588;-122.048;2022-07-24T09:17:52;11.00;;;2.60;;
49221;SDS011;35047;37.588;-122.048;2022-07-24T09:20:24;11.13;;;2.75;;
49221;SDS011;35047;37.588;-122.048;2022-07-24T09:22:58;10.20;;;3.10;;
49221;SDS011;35047;37.588;-122.048;2022-07-24T09:25:27;9.88;;;2.30;;
49221;SDS011;35047;37.588;-122.048;2022-07-24T09:27:55;9.20;;;2.40;;
49221;SDS011;35047;37.588;-122.048;2022-07-24T09:30:31;11.07;;;2.50;;
49221;SDS011;35047;37.588;-122.048;2022-07-24T09:38:18;8.90;;;2.53;;
49221;SDS011;35047;37.588;-122.048;2022-07-24T09:40:47;7.95;;;2.42;;
49221;SDS011;35047;37.588;-122.048;2022-07-24T09:45:51;11.40;;;2.55;;
49221;SDS011;35047;37.588;-122.048;2022-07-24T09:48:25;14.07;;;2.72;;
49221;SDS011;35047;37.588;-122.048;2022-07-24T09:51:04;11.95;;;3.13;;
49221;SDS011;35047;37.588;-122.048;2022-07-24T09:53:34;10.98;;;2.45;;
49221;SDS011;35047;37.588;-122.048;2022-07-24T09:58:35;14.15;;;2.90;;
49221;SDS011;35047;37.588;-122.048;2022-07-24T10:01:06;14.23;;;3.13;;
49221;SDS011;35047;37.588;-122.048;2022-07-24T10:03:34;11.60;;;2.45;;
49221;SDS011;35047;37.588;-122.048;2022-07-24T10:06:09;12.25;;;2.47;;
49221;SDS011;35047;37.588;-122.048;2022-07-24T10:08:38;11.57;;;3.15;;
49221;SDS011;35047;37.588;-122.048;2022-07-24T10:11:06;14.90;;;3.42;;
49221;SDS011;35047;37.588;-122.048;2022-07-24T10:13:34;10.70;;;3.42;;
49221;SDS011;35047;37.588;-122.048;2022-07-24T10:18:57;16.35;;;4.05;;
49221;SDS011;35047;37.588;-122.048;2022-07-24T10:21:29;10.88;;;2.70;;
49221;SDS011;35047;37.588;-122.048;2022-07-24T10:29:20;13.48;;;3.35;;
49221;SDS011;35047;37.588;-122.048;2022-07-24T10:31:49;15.20;;;3.90;;
49221;SDS011;35047;37.588;-122.048;2022-07-24T10:42:29;13.05;;;3.47;;
49221;SDS011;35047;37.588;-122.048;2022-07-24T10:45:14;8.57;;;3.20;;
49221;SDS011;35047;37.588;-122.048;2022-07-24T10:47:43;13.55;;;3.83;;
49221;SDS011;35047;37.588;-122.048;2022-07-24T10:50:11;15.50;;;4.30;;
49221;SDS011;35047;37.588;-122.048;2022-07-24T10:52:41;10.52;;;3.72;;
49221;SDS011;35047;37.588;-122.048;2022-07-24T10:58:03;13.63;;;3.92;;
49221;SDS011;35047;37.588;-122.048;2022-07-24T11:00:47;14.85;;;4.20;;
49221;SDS011;35047;37.588;-122.048;2022-07-24T11:03:19;13.23;;;3.67;;
49221;SDS011;35047;37.588;-122.048;2022-07-24T11:06:03;12.77;;;3.80;;
49221;SDS011;35047;37.588;-122.048;2022-07-24T11:11:09;13.75;;;4.05;;
49221;SDS011;35047;37.588;-122.048;2022-07-24T11:13:43;16.25;;;4.50;;
49221;SDS011;35047;37.588;-122.048;2022-07-24T11:21:30;15.68;;;4.03;;
49221;SDS011;35047;37.588;-122.048;2022-07-24T11:26:55;15.35;;;4.55;;
49221;SDS011;35047;37.588;-122.048;2022-07-24T11:29:29;14.82;;;4.72;;
49221;SDS011;35047;37.588;-122.048;2022-07-24T11:32:04;12.57;;;4.28;;
49221;SDS011;35047;37.588;-122.048;2022-07-24T11:34:33;14.43;;;4.40;;
49221;SDS011;35047;37.588;-122.048;2022-07-24T11:37:03;14.55;;;4.10;;
49221;SDS011;35047;37.588;-122.048;2022-07-24T11:39:38;12.25;;;4.38;;
49221;SDS011;35047;37.588;-122.048;2022-07-24T11:42:13;11.52;;;3.58;;
49221;SDS011;35047;37.588;-122.048;2022-07-24T11:44:44;15.23;;;3.95;;
49221;SDS011;35047;37.588;-122.048;2022-07-24T11:47:16;9.82;;;3.53;;
49221;SDS011;35047;37.588;-122.048;2022-07-24T11:49:48;13.18;;;4.07;;
49221;SDS011;35047;37.588;-122.048;2022-07-24T11:52:29;12.00;;;3.75;;
49221;SDS011;35047;37.588;-122.048;2022-07-24T11:55:14;12.20;;;3.95;;
49221;SDS011;35047;37.588;-122.048;2022-07-24T11:57:46;11.15;;;3.58;;
49221;SDS011;35047;37.588;-122.048;2022-07-24T12:00:19;19.98;;;4.57;;
49221;SDS011;35047;37.588;-122.048;2022-07-24T12:02:51;11.25;;;3.80;;
49221;SDS011;35047;37.588;-122.048;2022-07-24T12:05:30;17.35;;;3.85;;
49221;SDS011;35047;37.588;-122.048;2022-07-24T12:07:58;14.43;;;4.25;;
49221;SDS011;35047;37.588;-122.048;2022-07-24T12:10:26;12.65;;;4.25;;
49221;SDS011;35047;37.588;-122.048;2022-07-24T12:12:55;13.82;;;3.88;;
49221;SDS011;35047;37.588;-122.048;2022-07-24T12:15:22;14.45;;;3.97;;
49221;SDS011;35047;37.588;-122.048;2022-07-24T12:17:55;15.20;;;4.25;;
49221;SDS011;35047;37.588;-122.048;2022-07-24T12:20:29;11.30;;;4.03;;
49221;SDS011;35047;37.588;-122.048;2022-07-24T12:23:01;12.35;;;3.15;;
49221;SDS011;35047;37.588;-122.048;2022-07-24T12:25:30;11.88;;;3.38;;
49221;SDS011;35047;37.588;-122.048;2022-07-24T12:28:01;13.07;;;4.30;;
49221;SDS011;35047;37.588;-122.048;2022-07-24T12:30:37;13.15;;;3.80;;
49221;SDS011;35047;37.588;-122.048;2022-07-24T12:35:52;16.35;;;3.88;;
49221;SDS011;35047;37.588;-122.048;2022-07-24T12:41:14;7.93;;;3.25;;
49221;SDS011;35047;37.588;-122.048;2022-07-24T12:43:47;13.18;;;3.78;;
49221;SDS011;35047;37.588;-122.048;2022-07-24T12:46:39;15.00;;;3.90;;
49221;SDS011;35047;37.588;-122.048;2022-07-24T12:49:09;10.27;;;3.10;;
49221;SDS011;35047;37.588;-122.048;2022-07-24T12:54:20;14.07;;;3.63;;
49221;SDS011;35047;37.588;-122.048;2022-07-24T12:56:49;13.65;;;3.85;;
49221;SDS011;35047;37.588;-122.048;2022-07-24T12:59:24;8.77;;;3.33;;
49221;SDS011;35047;37.588;-122.048;2022-07-24T13:01:55;13.05;;;4.25;;
49221;SDS011;35047;37.588;-122.048;2022-07-24T13:04:25;12.23;;;3.45;;
49221;SDS011;35047;37.588;-122.048;2022-07-24T13:06:54;13.18;;;3.85;;
49221;SDS011;35047;37.588;-122.048;2022-07-24T13:09:23;10.90;;;3.63;;
49221;SDS011;35047;37.588;-122.048;2022-07-24T13:11:52;13.23;;;4.07;;
49221;SDS011;35047;37.588;-122.048;2022-07-24T13:14:21;8.20;;;3.08;;
49221;SDS011;35047;37.588;-122.048;2022-07-24T13:16:50;13.40;;;3.65;;
49221;SDS011;35047;37.588;-122.048;2022-07-24T13:19:18;12.40;;;3.67;;
49221;SDS011;35047;37.588;-122.048;2022-07-24T13:21:47;9.77;;;3.47;;
49221;SDS011;35047;37.588;-122.048;2022-07-24T13:24:14;10.25;;;2.92;;
49221;SDS011;35047;37.588;-122.048;2022-07-24T13:26:42;8.23;;;2.30;;
49221;SDS011;35047;37.588;-122.048;2022-07-24T13:29:10;6.60;;;2.13;;
49221;SDS011;35047;37.588;-122.048;2022-07-24T13:31:37;6.47;;;2.25;;
49221;SDS011;35047;37.588;-122.048;2022-07-24T13:34:05;6.15;;;1.95;;
49221;SDS011;35047;37.588;-122.048;2022-07-24T13:36:33;8.15;;;1.85;;
49221;SDS011;35047;37.588;-122.048;2022-07-24T13:39:00;4.72;;;1.98;;
49221;SDS011;35047;37.588;-122.048;2022-07-24T13:41:30;4.35;;;1.50;;
49221;SDS011;35047;37.588;-122.048;2022-07-24T13:43:56;3.95;;;1.83;;
49221;SDS011;35047;37.588;-122.048;2022-07-24T13:46:23;2.93;;;1.63;;
49221;SDS011;35047;37.588;-122.048;2022-07-24T13:48:49;7.67;;;1.53;;
49221;SDS011;35047;37.588;-122.048;2022-07-24T13:51:18;5.22;;;1.77;;
49221;SDS011;35047;37.588;-122.048;2022-07-24T13:53:44;6.13;;;1.90;;
49221;SDS011;35047;37.588;-122.048;2022-07-24T13:56:13;6.43;;;1.88;;
49221;SDS011;35047;37.588;-122.048;2022-07-24T13:58:39;3.33;;;1.73;;
49221;SDS011;35047;37.588;-122.048;2022-07-24T14:01:07;5.78;;;2.20;;
49221;SDS011;35047;37.588;-122.048;2022-07-24T14:06:04;3.65;;;1.83;;
49221;SDS011;35047;37.588;-122.048;2022-07-24T14:08:31;4.97;;;1.70;;
49221;SDS011;35047;37.588;-122.048;2022-07-24T14:10:58;3.80;;;1.98;;
49221;SDS011;35047;37.588;-122.048;2022-07-24T14:13:25;6.78;;;2.13;;
49221;SDS011;35047;37.588;-122.048;2022-07-24T14:15:52;3.80;;;1.77;;
49221;SDS011;35047;37.588;-122.048;2022-07-24T14:18:19;3.05;;;1.50;;
49221;SDS011;35047;37.588;-122.048;2022-07-24T14:20:46;4.90;;;1.88;;
49221;SDS011;35047;37.588;-122.048;2022-07-24T14:23:13;2.83;;;1.60;;
49221;SDS011;35047;37.588;-122.048;2022-07-24T14:25:40;2.67;;;1.70;;
49221;SDS011;35047;37.588;-122.048;2022-07-24T14:28:07;5.28;;;1.83;;
49221;SDS011;35047;37.588;-122.048;2022-07-24T14:30:34;7.03;;;1.67;;
49221;SDS011;35047;37.588;-122.048;2022-07-24T14:33:01;5.47;;;2.13;;
49221;SDS011;35047;37.588;-122.048;2022-07-24T14:35:27;4.40;;;1.58;;
49221;SDS011;35047;37.588;-122.048;2022-07-24T14:37:56;5.40;;;1.92;;
49221;SDS011;35047;37.588;-122.048;2022-07-24T14:40:23;5.93;;;1.98;;
49221;SDS011;35047;37.588;-122.048;2022-07-24T14:42:50;2.97;;;1.70;;
49221;SDS011;35047;37.588;-122.048;2022-07-24T14:45:17;3.25;;;1.55;;
49221;SDS011;35047;37.588;-122.048;2022-07-24T14:47:44;5.32;;;2.50;;
49221;SDS011;35047;37.588;-122.048;2022-07-24T14:50:11;4.43;;;1.77;;
49221;SDS011;35047;37.588;-122.048;2022-07-24T14:52:38;4.07;;;1.85;;
49221;SDS011;35047;37.588;-122.048;2022-07-24T14:57:32;5.88;;;1.85;;
49221;SDS011;35047;37.588;-122.048;2022-07-24T14:59:59;6.18;;;1.80;;
49221;SDS011;35047;37.588;-122.048;2022-07-24T15:02:26;7.03;;;1.88;;
49221;SDS011;35047;37.588;-122.048;2022-07-24T15:04:53;4.95;;;2.00;;
49221;SDS011;35047;37.588;-122.048;2022-07-24T15:07:20;2.97;;;1.67;;
49221;SDS011;35047;37.588;-122.048;2022-07-24T15:09:47;6.75;;;1.77;;
49221;SDS011;35047;37.588;-122.048;2022-07-24T15:12:14;4.33;;;1.70;;
49221;SDS011;35047;37.588;-122.048;2022-07-24T15:14:40;6.18;;;2.00;;
49221;SDS011;35047;37.588;-122.048;2022-07-24T15:17:08;2.47;;;1.98;;
49221;SDS011;35047;37.588;-122.048;2022-07-24T15:19:35;5.27;;;2.00;;
49221;SDS011;35047;37.588;-122.048;2022-07-24T15:22:02;4.15;;;2.22;;
49221;SDS011;35047;37.588;-122.048;2022-07-24T15:24:29;5.03;;;2.25;;
49221;SDS011;35047;37.588;-122.048;2022-07-24T15:26:55;4.55;;;1.95;;
49221;SDS011;35047;37.588;-122.048;2022-07-24T15:29:22;4.63;;;2.25;;
49221;SDS011;35047;37.588;-122.048;2022-07-24T15:31:49;6.57;;;2.10;;
49221;SDS011;35047;37.588;-122.048;2022-07-24T15:34:16;4.38;;;2.22;;
49221;SDS011;35047;37.588;-122.048;2022-07-24T15:36:43;3.65;;;2.03;;